• Join FlightAware (Why Join?)
  • Login
  • US Flag 
11:32AM EDT


 

Airport Tracker/Info


-or-


 

Live Flight TrackerFlight Track Log ✈ AWE769 ✈ 07-May-2013 ✈ KPHL - KTPA

Flight Track Log - Related Links

Times and Time Zones

All times are in EDT time to prevent confusion due to time zone crossing. See the AWE769 flight status page for this flight to view local times or setup timezone preferences in your user account.

Time Position Orientation Groundspeed Altitude Reporting Facility
EDT Latitude Longitude Course Direction KTS MPH feet Rate Location/Type
03:56PM 39.8714 -75.2151 70° East 169 194 1,100  Level FlightAware ADS-B
03:56PM 39.8763 -75.2004 67° East 172 198 1,900 2,460 Climbing FlightAware ADS-B
03:57PM 39.8816 -75.1834 68° East 197 227 2,400 2,220 Climbing FlightAware ADS-B
03:57PM 39.8850 -75.1716 69° East 202 232 2,900 3,060 Climbing FlightAware ADS-B
03:57PM 39.8905 -75.1534 68° East 206 237 3,800 3,540 Climbing FlightAware ADS-B
03:57PM 39.8927 -75.1467 67° East 205 236 4,200 3,780 Climbing FlightAware ADS-B
03:57PM 39.8951 -75.1412 60° Northeast 207 238 4,500 3,960 Climbing FlightAware ADS-B
03:57PM 39.8977 -75.1365 54° Northeast 212 244 4,800 3,000 Climbing FlightAware ADS-B
03:57PM 39.9001 -75.1331 47° Northeast 220 253 4,900 1,500 Climbing FlightAware ADS-B
03:57PM 39.9032 -75.1300 37° Northeast 228 262 5,000 2,400 Climbing FlightAware ADS-B
03:57PM 39.9097 -75.1261 25° Northeast 237 273 5,300 2,760 Climbing FlightAware ADS-B
03:58PM 39.9166 -75.1245 10° North 246 283 5,600 2,460 Climbing FlightAware ADS-B
03:58PM 39.9221 -75.1252 354° North 254 292 5,800 2,640 Climbing FlightAware ADS-B
03:58PM 39.9267 -75.1268 345° North 261 300 6,000 2,520 Climbing FlightAware ADS-B
03:58PM 39.9305 -75.1288 338° Northwest 265 305 6,100 2,640 Climbing FlightAware ADS-B
03:58PM 39.9370 -75.1343 327° Northwest 270 311 6,400 3,000 Climbing FlightAware ADS-B
03:58PM 39.9412 -75.1396 316° Northwest 273 314 6,600 2,700 Climbing FlightAware ADS-B
03:58PM 39.9456 -75.1475 306° West 276 318 6,900 2,700 Climbing FlightAware ADS-B
03:58PM 39.9483 -75.1547 296° West 276 318 7,100 3,300 Climbing FlightAware ADS-B
03:58PM 39.9502 -75.1619 289° West 275 316 7,400 3,540 Climbing FlightAware ADS-B
03:59PM 39.9501 -75.1894 270° West 270 311 8,400 3,240 Climbing FlightAware ADS-B
03:59PM 39.9485 -75.1970 255° West 275 316 8,600 1,680 Climbing FlightAware ADS-B
03:59PM 39.9428 -75.2225 254° West 296 341 9,000 2,100 Climbing FlightAware ADS-B
03:59PM 39.9379 -75.2445 254° West 307 353 9,600 1,680 Climbing FlightAware ADS-B
03:59PM 39.9315 -75.2754 255° West 332 382 9,800 540 Climbing FlightAware ADS-B
04:00PM 39.9257 -75.3065 256° West 345 397 9,900 120 Climbing FlightAware ADS-B
04:00PM 39.9190 -75.3430 257° West 348 400 9,900  Level FlightAware ADS-B
04:00PM 39.9131 -75.3750 256° West 344 396 9,900  Level FlightAware ADS-B
04:00PM 39.9058 -75.4136 256° West 344 396 9,900  Level FlightAware ADS-B
04:01PM 39.8998 -75.4448 256° West 344 396 9,900  Level FlightAware ADS-B
04:01PM 39.8936 -75.4752 255° West 345 397 9,900  Level FlightAware ADS-B
04:01PM 39.8886 -75.5008 256° West 349 402 9,900  Level FlightAware ADS-B
04:01PM 39.8866 -75.5161 260° West 351 404 9,900  Level FlightAware ADS-B
04:01PM 39.8861 -75.5241 265° West 353 406 9,900  Level FlightAware ADS-B
04:02PM 39.8862 -75.5394 270° West 355 409 9,900  Level FlightAware ADS-B
04:02PM 39.8869 -75.5488 276° West 355 409 9,900  Level FlightAware ADS-B
04:02PM 39.8900 -75.5809 277° West 354 407 9,900 1,380 Level FlightAware ADS-B
04:02PM 39.8962 -75.6488 277° West 364 419 11,000 1,800 Climbing FlightAware ADS-B
04:03PM 39.9025 -75.7154 277° West 362 417 11,800 2,040 Climbing FlightAware ADS-B
04:03PM 39.9092 -75.7816 278° West 369 425 13,100 2,640 Climbing FlightAware ADS-B
04:04PM 39.9128 -75.8179 277° West 374 430 13,900 2,880 Climbing FlightAware ADS-B
04:04PM 39.9123 -75.8524 269° West 374 430 14,600 2,640 Climbing FlightAware ADS-B
04:04PM 39.9080 -75.8769 257° West 373 429 15,100 3,000 Climbing FlightAware ADS-B
04:04PM 39.8967 -75.9109 247° West 373 429 16,000 3,060 Climbing FlightAware ADS-B
04:05PM 39.8692 -75.9763 241° Southwest 375 432 17,600 2,880 Climbing FlightAware ADS-B
04:05PM 39.8376 -76.0326 234° Southwest 377 434 19,100 2,580 Climbing FlightAware ADS-B
04:06PM 39.8048 -76.0894 233° Southwest 386 444 20,300 2,400 Climbing FlightAware ADS-B
04:06PM 39.7717 -76.1464 233° Southwest 389 448 21,600 2,400 Climbing FlightAware ADS-B
04:07PM 39.7350 -76.2118 234° Southwest 397 457 22,900 2,280 Climbing FlightAware ADS-B
04:08PM 39.7018 -76.2711 234° Southwest 401 461 24,100 2,160 Climbing FlightAware ADS-B
04:08PM 39.6636 -76.3414 235° Southwest 407 468 25,300 1,740 Climbing FlightAware ADS-B
04:09PM 39.6309 -76.4023 235° Southwest 420 483 26,000 1,500 Climbing FlightAware ADS-B
04:09PM 39.5940 -76.4710 235° Southwest 428 493 26,900 1,440 Climbing FlightAware ADS-B
04:10PM 39.5523 -76.5488 235° Southwest 441 507 27,700 1,500 Climbing FlightAware ADS-B
04:10PM 39.5154 -76.6174 235° Southwest 450 518 28,600 1,560 Climbing FlightAware ADS-B
04:11PM 39.4744 -76.6952 236° Southwest 456 525 29,500 1,560 Climbing FlightAware ADS-B
04:11PM 39.4550 -76.7259 231° Southwest 455 524 29,900 1,500 Climbing FlightAware ADS-B
04:12PM 39.4112 -76.7854 226° Southwest 461 531 30,600 1,560 Climbing FlightAware ADS-B
04:12PM 39.3659 -76.8458 226° Southwest 466 536 31,500 1,980 Climbing FlightAware ADS-B
04:13PM 39.3178 -76.9106 226° Southwest 468 539 32,700 2,460 Climbing FlightAware ADS-B
04:13PM 39.2667 -76.9812 227° Southwest 459 528 34,300 3,060 Climbing FlightAware ADS-B
04:14PM 39.2241 -77.0430 228° Southwest 437 503 36,100 2,400 Climbing FlightAware ADS-B
04:14PM 39.1693 -77.1213 228° Southwest 435 501 37,200 1,440 Climbing FlightAware ADS-B
04:15PM 39.1208 -77.1779 222° Southwest 432 497 37,900 660 Climbing FlightAware ADS-B
04:16PM 39.0664 -77.2305 217° Southwest 435 501 38,000 60 Climbing FlightAware ADS-B
04:16PM 39.0169 -77.2773 216° Southwest 439 505 38,000  Level FlightAware ADS-B
04:16PM 38.9990 -77.2972 221° Southwest 441 507 38,000  Level FlightAware ADS-B
04:17PM 38.9814 -77.3237 229° Southwest 442 509 38,000  Level FlightAware ADS-B
04:17PM 38.9391 -77.4164 240° Southwest 441 507 38,000  Level FlightAware ADS-B
04:18PM 38.8844 -77.5489 242° Southwest 441 507 38,000  Level FlightAware ADS-B
04:19PM 38.8450 -77.6470 243° Southwest 447 514 38,000  Level FlightAware
04:20PM 38.8070 -77.7410 243° Southwest 448 516 38,000  Level FlightAware
04:20PM 38.7640 -77.8480 243° Southwest 454 522 38,000  Level FlightAware
04:21PM 38.7220 -77.9390 239° Southwest 450 518 38,000  Level FlightAware
04:22PM 38.6690 -78.0190 230° Southwest 443 510 38,000  Level FlightAware
04:22PM 38.5880 -78.0730 208° Southwest 441 507 38,000  Level FlightAware
04:23PM 38.5210 -78.1350 216° Southwest 447 514 38,000  Level FlightAware
04:24PM 38.4500 -78.2080 219° Southwest 445 512 38,000  Level FlightAware
04:24PM 38.3940 -78.2580 215° Southwest 439 505 38,000  Level FlightAware
04:25PM 38.3140 -78.3150 209° Southwest 421 484 38,000  Level FlightAware
04:26PM 38.2350 -78.3650 206° Southwest 417 480 38,000  Level FlightAware
04:26PM 38.1830 -78.4000 208° Southwest 419 482 38,000  Level FlightAware
04:27PM 38.0960 -78.4650 210° Southwest 422 486 38,000  Level FlightAware
04:28PM 38.0010 -78.5390 212° Southwest 433 498 38,000  Level FlightAware
04:29PM 37.9630 -78.5680 211° Southwest 435 501 38,000  Level FlightAware
04:30PM 37.8700 -78.6380 211° Southwest 440 506 38,000  Level FlightAware
04:31PM 37.7690 -78.7140 211° Southwest 436 502 38,000  Level FlightAware
04:31PM 37.7100 -78.7590 211° Southwest 436 502 38,000  Level FlightAware
04:32PM 37.6520 -78.8030 211° Southwest 436 502 38,000  Level FlightAware
04:33PM 37.5930 -78.8480 211° Southwest 436 502 38,000  Level FlightAware
04:33PM 37.5190 -78.9040 211° Southwest 436 502 38,000  Level FlightAware
04:34PM 37.4040 -78.9790 207° Southwest 429 494 38,000  Level FlightAware
04:35PM 37.3060 -79.0490 210° Southwest 436 502 38,000  Level FlightAware
04:35PM 37.2440 -79.0940 210° Southwest 437 503 38,000  Level FlightAware
04:36PM 37.1840 -79.1370 210° Southwest 437 503 38,000  Level FlightAware
04:37PM 37.1250 -79.1800 210° Southwest 437 503 38,000  Level FlightAware
04:38PM 37.0500 -79.2340 210° Southwest 437 503 38,000  Level FlightAware
04:38PM 36.9910 -79.2770 210° Southwest 437 503 38,000  Level FlightAware
04:39PM 36.9310 -79.3200 210° Southwest 437 503 38,000  Level FlightAware
04:40PM 36.8720 -79.3630 210° Southwest 437 503 38,000  Level FlightAware
04:40PM 36.8120 -79.4060 210° Southwest 437 503 38,000  Level FlightAware
04:41PM 36.7380 -79.4600 210° Southwest 437 503 38,000  Level FlightAware
04:42PM 36.6780 -79.5020 209° Southwest 437 503 38,000  Level FlightAware
04:42PM 36.6190 -79.5450 210° Southwest 437 503 38,000  Level FlightAware
04:43PM 36.5590 -79.5880 210° Southwest 437 503 38,000  Level FlightAware
04:44PM 36.4990 -79.6310 210° Southwest 437 503 38,000  Level FlightAware
04:45PM 36.4250 -79.6840 210° Southwest 437 503 38,000  Level FlightAware
04:45PM 36.1222 -79.8461 210° Southwest 454 522 38,000  Level Atlanta Center
04:46PM 36.0075 -79.9061 203° Southwest 454 522 38,000  Level Atlanta Center
04:47PM 35.9053 -79.9650 205° Southwest 454 522 38,000  Level Atlanta Center
04:53PM 35.2750 -80.3060 205° Southwest 448 516 38,000  Level FlightAware
04:54PM 35.1890 -80.3520 204° Southwest 448 516 38,000  Level FlightAware
04:54PM 35.1310 -80.3820 203° Southwest 447 514 38,000  Level FlightAware
04:55PM 35.0410 -80.4300 204° Southwest 448 516 38,000  Level FlightAware
04:56PM 34.9540 -80.4750 203° Southwest 449 517 38,000  Level FlightAware
04:56PM 34.8880 -80.5100 204° Southwest 446 513 38,000  Level FlightAware
04:57PM 34.8000 -80.5570 204° Southwest 442 509 38,000  Level FlightAware
04:58PM 34.7150 -80.6020 204° Southwest 441 507 38,000  Level FlightAware
04:58PM 34.6510 -80.6360 204° Southwest 441 507 38,000  Level FlightAware
04:59PM 34.5570 -80.6860 204° Southwest 441 507 38,000  Level FlightAware
05:00PM 34.4840 -80.7250 204° Southwest 441 507 38,000  Level FlightAware
05:00PM 34.4230 -80.7570 203° Southwest 442 509 38,000  Level FlightAware
05:01PM 34.3250 -80.8090 204° Southwest 442 509 38,000  Level FlightAware
05:02PM 34.2630 -80.8420 204° Southwest 440 506 38,000  Level FlightAware
05:03PM 34.1760 -80.8870 203° Southwest 439 505 38,000  Level FlightAware
05:03PM 34.0930 -80.9300 203° Southwest 436 502 38,000  Level FlightAware
05:04PM 34.0160 -80.9700 203° Southwest 435 501 38,000  Level FlightAware
05:05PM 33.9310 -81.0130 203° Southwest 432 497 38,000  Level FlightAware
05:05PM 33.8590 -81.0500 203° Southwest 430 495 38,000  Level FlightAware
05:06PM 33.7730 -81.0930 203° Southwest 429 494 38,000  Level FlightAware
05:07PM 33.7000 -81.1290 202° Southwest 426 490 38,000  Level FlightAware
05:08PM 33.6270 -81.1650 202° Southwest 426 490 38,000  Level FlightAware
05:08PM 33.5450 -81.2050 202° Southwest 427 491 38,000  Level FlightAware
05:09PM 33.4750 -81.2400 203° Southwest 428 493 38,000  Level FlightAware
05:10PM 33.3900 -81.2810 202° Southwest 428 493 38,000  Level FlightAware
05:10PM 33.3170 -81.3170 202° Southwest 426 490 38,000  Level FlightAware
05:11PM 33.2430 -81.3520 202° Southwest 426 490 38,000  Level FlightAware
05:12PM 33.1620 -81.3910 202° Southwest 430 495 38,000  Level FlightAware
05:12PM 33.0940 -81.4240 202° Southwest 436 502 38,000  Level FlightAware
05:13PM 33.0100 -81.4650 202° Southwest 442 509 38,000  Level FlightAware
05:14PM 32.9280 -81.5040 202° Southwest 444 511 38,000  Level FlightAware
05:15PM 32.8530 -81.5400 202° Southwest 444 511 38,000  Level FlightAware
05:15PM 32.7800 -81.5760 203° Southwest 444 511 38,000  Level FlightAware
05:16PM 32.6770 -81.6260 202° Southwest 440 506 38,000  Level FlightAware
05:17PM 32.6140 -81.6590 204° Southwest 440 506 38,000  Level FlightAware
05:18PM 32.5500 -81.6910 203° Southwest 440 506 38,000  Level FlightAware
05:18PM 32.4570 -81.7300 199° South 416 479 38,000  Level FlightAware
05:19PM 32.3550 -81.7790 202° Southwest 409 471 38,000  Level FlightAware
05:20PM 32.2710 -81.8180 201° Southwest 409 471 38,000  Level FlightAware
05:21PM 32.2160 -81.8460 203° Southwest 409 471 38,000  Level FlightAware
05:21PM 32.1420 -81.8830 203° Southwest 409 471 38,000  Level FlightAware
05:22PM 32.0830 -81.9130 203° Southwest 409 471 38,000  Level FlightAware
05:23PM 32.0240 -81.9420 203° Southwest 409 471 38,000  Level FlightAware
05:23PM 31.9640 -81.9720 203° Southwest 409 471 38,000  Level FlightAware
05:24PM 31.9050 -82.0020 203° Southwest 409 471 38,000  Level FlightAware
05:25PM 31.8310 -82.0390 203° Southwest 409 471 38,000  Level FlightAware
05:26PM 31.7720 -82.0680 203° Southwest 409 471 38,000  Level FlightAware
05:26PM 31.7130 -82.0980 203° Southwest 409 471 38,000  Level FlightAware
05:27PM 31.6530 -82.1270 202° Southwest 409 471 38,000  Level FlightAware
05:28PM 31.5940 -82.1570 203° Southwest 409 471 38,000  Level FlightAware
05:28PM 31.5350 -82.1860 203° Southwest 409 471 38,000  Level FlightAware
05:29PM 31.4610 -82.2230 203° Southwest 409 471 38,000  Level FlightAware
05:30PM 31.4020 -82.2530 203° Southwest 409 471 38,000  Level FlightAware
05:30PM 31.1214 -82.3125 203° Southwest 432 497 38,000  Level Jacksonville Center
05:31PM 31.0086 -82.3544 198° South 432 497 38,000  Level Jacksonville Center
05:37PM 30.3140 -82.3960 198° South 444 511 38,000  Level FlightAware
05:38PM 30.2540 -82.3520 148° Southeast 444 511 38,000 -960 Level FlightAware
05:39PM 30.1840 -82.3480 177° South 414 476 36,900 -1,320 Descending FlightAware
05:39PM 30.1110 -82.3490 181° South 405 466 36,500 -840 Descending FlightAware
05:40PM 30.0440 -82.3500 181° South 405 466 35,900 -780 Descending FlightAware
05:41PM 29.9540 -82.3500 180° South 399 459 35,400 -960 Descending FlightAware
05:41PM 29.8760 -82.3500 180° South 396 456 34,500 -1,920 Descending FlightAware
05:42PM 29.7950 -82.3490 179° South 405 466 32,700 -3,300 Descending FlightAware
05:43PM 29.7190 -82.3490 180° South 415 478 29,900 -3,900 Descending FlightAware
05:43PM 29.6370 -82.3490 180° South 429 494 27,500 -1,980 Descending FlightAware
05:44PM 29.5630 -82.3470 179° South 416 479 27,100 -900 Descending FlightAware
05:45PM 29.4750 -82.3370 174° South 410 472 26,300 -780 Descending FlightAware
05:46PM 29.3930 -82.3280 175° South 404 465 26,000 -480 Descending FlightAware
05:46PM 29.3190 -82.3190 174° South 406 467 25,700 -1,020 Descending FlightAware
05:47PM 29.2330 -82.3090 174° South 398 458 24,600 -1,740 Descending FlightAware
05:48PM 29.1590 -82.3000 174° South 391 450 23,300 -2,580 Descending FlightAware
05:48PM 29.0910 -82.2930 175° South 373 429 21,200 -3,480 Descending FlightAware
05:49PM 29.0140 -82.2840 174° South 367 422 18,400 -3,540 Descending FlightAware
05:50PM 28.9480 -82.2760 174° South 351 404 16,200 -3,120 Descending FlightAware
05:50PM 28.8840 -82.2690 175° South 351 404 14,300 -1,860 Descending FlightAware
05:51PM 28.8110 -82.2600 174° South 339 390 13,600 -540 Descending FlightAware
05:52PM 28.7260 -82.2500 174° South 332 382 13,400 -780 Descending FlightAware
05:53PM 28.6820 -82.2500 180° South 300 345 12,500 -660 Descending FlightAware
05:54PM 28.6130 -82.2490 179° South 300 345 12,500 -1,500 Level FlightAware
05:54PM 28.5670 -82.2480 179° South 294 338 10,400 -3,180 Descending FlightAware
05:55PM 28.5280 -82.2480 180° South 294 338 9,600 -1,800 Descending FlightAware
05:55PM 28.4920 -82.2470 179° South 294 338 8,900 -1,560 Descending FlightAware
05:55PM 28.4580 -82.2460 179° South 292 336 8,300 -1,440 Descending FlightAware
05:56PM 28.4190 -82.2490 184° South 281 323 7,600 -1,320 Descending FlightAware
05:56PM 28.3940 -82.2580 198° South 274 315 7,200 -1,200 Descending FlightAware
05:57PM 28.3540 -82.2760 202° Southwest 266 306 6,500 -960 Descending FlightAware
05:57PM 28.3200 -82.2910 201° Southwest 258 297 6,200 -720 Descending FlightAware
05:58PM 28.3040 -82.3000 206° Southwest 252 290 6,000 -720 Descending FlightAware
05:58PM 28.2950 -82.3100 224° Southwest 247 284 5,900 -840 Descending FlightAware
05:58PM 28.2870 -82.3340 249° West 238 274 5,600 -720 Descending FlightAware
05:58PM 28.2820 -82.3620 259° West 227 261 5,400 -780 Descending FlightAware
05:59PM 28.2770 -82.3970 261° West 220 253 4,900 -1,080 Descending FlightAware
05:59PM 28.2740 -82.4130 258° West 219 252 4,600 -1,200 Descending FlightAware
06:00PM 28.2690 -82.4430 259° West 218 251 4,100 -1,020 Descending FlightAware
06:00PM 28.2590 -82.4720 249° West 217 250 3,700 -1,080 Descending FlightAware
06:00PM 28.2490 -82.4880 235° Southwest 218 251 3,300 -1,440 Descending FlightAware
06:01PM 28.2410 -82.4950 218° Southwest 219 252 3,100 -600 Descending FlightAware
06:01PM 28.2170 -82.5150 216° Southwest 226 260 2,900 -240 Descending FlightAware
06:01PM 28.1980 -82.5280 211° Southwest 217 250 2,900  Level FlightAware
06:02PM 28.1740 -82.5310 186° South 201 231 2,900  Level FlightAware
06:02PM 28.1570 -82.5310 180° South 186 214 2,900  Level FlightAware
06:02PM 28.1400 -82.5310 180° South 173 199 2,900 -300 Level FlightAware
06:03PM 28.1200 -82.5310 180° South 172 198 2,700 -780 Descending FlightAware
06:03PM 28.1090 -82.5320 185° South 171 197 2,400 -1,020 Descending FlightAware
06:03PM 28.0990 -82.5320 180° South 167 192 2,200 -720 Descending FlightAware
06:04PM 28.0750 -82.5330 182° South 149 171 1,900 -900 Descending FlightAware
06:04PM 28.0580 -82.5340 183° South 132 152 1,400 -900 Descending FlightAware
06:05PM 28.0410 -82.5350 183° South 129 148 1,100 -720 Descending FlightAware
06:05PM 28.0230 -82.5360 183° South 130 150 700 -660 Descending FlightAware
06:06PM 28.0090 -82.5360 180° South 127 146 500 -720 Descending FlightAware
06:06PM 28.0020 -82.5370 187° South 122 140 300 -300 Descending FlightAware
06:06PM 27.9860 -82.5370 180° South 124 143 300  Level FlightAware